Aviation Digital Data Service (ADDS)

Output produced by METARs form (2022 UTC 28 May 2017)
found at http://aviationweather.gov/adds/metars/
 
KBPT 281720Z 2818/2918 15012KT P6SM VCTS SCT025CB BKN035 
     FM290200 14005KT P6SM VCTS BKN025 OVC040CB